Time;durP1;ratioP1;P1;durP2;ratioP2;P2;SDS_P1;SDS_P2;PMS_P1;PMS_P2;Temp;Humidity;BMP_temperature;BMP_pressure;BME280_temperature;BME280_humidity;BME280_pressure;Samples;Min_cycle;Max_cycle;Signal;HPM_P1;HPM_P2
2023/09/23 00:01:20;;;;;;;0.83;0.60;;;;;;;11.55;76.23;95130.56;6129570;23;20164;-81
2023/09/23 00:03:46;;;;;;;0.90;0.60;;;;;;;11.60;76.23;95132.69;6154763;23;20175;-80
2023/09/23 00:06:11;;;;;;;0.70;0.70;;;;;;;11.29;77.48;95125.53;6129006;23;20243;-81
2023/09/23 00:08:36;;;;;;;0.53;0.50;;;;;;;11.47;76.67;95130.56;6129396;23;20202;-82
2023/09/23 00:11:02;;;;;;;0.60;0.60;;;;;;;11.57;76.69;95131.22;6129431;23;20163;-81
2023/09/23 00:13:28;;;;;;;1.30;0.70;;;;;;;11.41;77.15;95141.63;6128999;23;20184;-82
2023/09/23 00:15:55;;;;;;;2.07;0.70;;;;;;;11.40;77.35;95140.00;6129883;23;20158;-82
2023/09/23 00:18:21;;;;;;;1.87;0.80;;;;;;;11.30;77.60;95144.53;6131046;23;20211;-83
2023/09/23 00:20:46;;;;;;;2.00;0.73;;;;;;;11.22;78.00;95152.31;6154910;23;20167;-82
2023/09/23 00:23:12;;;;;;;1.63;0.80;;;;;;;11.26;77.96;95149.25;6153390;23;20190;-80
2023/09/23 00:25:38;;;;;;;1.07;0.90;;;;;;;11.17;78.29;95159.81;6154409;23;20201;-82
2023/09/23 00:28:08;;;;;;;2.40;0.70;;;;;;;11.28;77.41;95162.06;6130144;23;20167;-81
2023/09/23 00:30:35;;;;;;;1.40;0.70;;;;;;;11.17;78.27;95159.81;6156083;23;20593;-81
2023/09/23 00:33:01;;;;;;;1.83;0.90;;;;;;;11.02;78.08;95178.59;6153245;23;20611;-82
2023/09/23 00:35:28;;;;;;;0.80;0.70;;;;;;;11.20;78.05;95180.25;6128887;23;20171;-81
2023/09/23 00:37:53;;;;;;;2.10;1.00;;;;;;;11.28;77.93;95178.50;6129839;23;20219;-82
2023/09/23 00:40:29;;;;;;;1.33;0.60;;;;;;;11.28;77.38;95188.06;6128428;23;20536;-81
2023/09/23 00:43:11;;;;;;;1.70;0.60;;;;;;;10.97;79.27;95180.88;6129904;23;20478;-81
2023/09/23 00:45:37;;;;;;;0.97;0.60;;;;;;;11.20;78.25;95175.88;6129458;23;20175;-81
2023/09/23 00:48:08;;;;;;;1.30;0.80;;;;;;;11.20;78.48;95169.88;6153441;23;20231;-81
2023/09/23 00:50:34;;;;;;;1.03;0.70;;;;;;;11.21;78.63;95177.50;6130074;23;20495;-81
2023/09/23 00:52:59;;;;;;;1.63;0.70;;;;;;;11.24;78.32;95166.00;6127364;23;20159;-81
2023/09/23 00:55:25;;;;;;;0.80;0.70;;;;;;;11.27;78.16;95165.66;6128233;23;20178;-80
2023/09/23 00:57:53;;;;;;;1.83;0.57;;;;;;;11.19;78.19;95171.66;6152834;23;20163;-80
2023/09/23 01:00:31;;;;;;;1.93;0.70;;;;;;;11.24;78.39;95160.78;6152874;23;20159;-81
2023/09/23 01:02:58;;;;;;;1.10;0.70;;;;;;;11.22;77.97;95163.56;6152389;23;20575;-80
2023/09/23 01:05:27;;;;;;;1.37;0.87;;;;;;;11.17;78.72;95170.19;6152761;23;20183;-81
2023/09/23 01:07:56;;;;;;;1.27;0.60;;;;;;;11.22;78.22;95171.34;6152916;23;20186;-82
2023/09/23 01:10:23;;;;;;;1.37;0.77;;;;;;;11.25;78.10;95178.81;6129642;23;20166;-81
2023/09/23 01:12:48;;;;;;;0.80;0.70;;;;;;;11.18;78.44;95177.00;6127697;23;20665;-82
2023/09/23 01:15:17;;;;;;;3.40;1.00;;;;;;;11.22;77.87;95173.09;6153074;23;20211;-80
2023/09/23 01:17:43;;;;;;;1.53;0.70;;;;;;;11.20;78.29;95175.88;6129053;23;20160;-81
2023/09/23 01:20:10;;;;;;;2.10;0.70;;;;;;;11.17;78.36;95175.41;6128234;23;20610;-80
2023/09/23 01:22:36;;;;;;;1.47;0.80;;;;;;;11.16;78.53;95179.78;6127381;23;20160;-82
2023/09/23 01:25:02;;;;;;;1.00;0.70;;;;;;;11.07;78.79;95184.16;6152576;23;20187;-82
2023/09/23 01:27:27;;;;;;;1.00;0.87;;;;;;;11.13;78.62;95187.06;6153165;23;20177;-81
2023/09/23 01:29:54;;;;;;;1.53;0.80;;;;;;;11.13;78.41;95181.88;6128490;23;20666;-81
2023/09/23 01:32:39;;;;;;;1.83;0.70;;;;;;;11.09;78.92;95180.56;6128486;23;20165;-80
2023/09/23 01:35:05;;;;;;;0.93;0.70;;;;;;;10.98;79.63;95181.69;6154425;23;20257;-82
2023/09/23 01:37:31;;;;;;;1.13;0.80;;;;;;;10.99;79.65;95184.13;6128147;23;20209;-81
2023/09/23 01:39:56;;;;;;;1.63;0.70;;;;;;;11.02;79.37;95183.78;6128320;23;20600;-82
2023/09/23 01:42:21;;;;;;;0.70;0.70;;;;;;;10.92;79.97;95190.91;6127446;23;20166;-80
2023/09/23 01:44:48;;;;;;;1.30;0.70;;;;;;;11.05;79.42;95187.88;6128369;23;20844;-82
2023/09/23 01:47:16;;;;;;;1.80;1.00;;;;;;;11.03;79.15;95193.22;6128249;23;20191;-83
2023/09/23 01:49:42;;;;;;;0.97;0.80;;;;;;;11.11;78.83;95187.22;6153000;23;20186;-79
2023/09/23 01:52:09;;;;;;;2.40;0.70;;;;;;;11.02;79.28;95194.19;6152713;23;20508;-81
2023/09/23 01:54:34;;;;;;;1.70;0.60;;;;;;;10.96;79.22;95194.84;6152535;23;20174;-80
2023/09/23 01:57:01;;;;;;;0.90;0.60;;;;;;;10.92;79.42;95196.13;6153401;23;20155;-80
2023/09/23 01:59:27;;;;;;;0.70;0.70;;;;;;;10.82;79.87;95194.63;6128773;23;20634;-80
2023/09/23 02:01:52;;;;;;;1.07;0.77;;;;;;;10.92;79.23;95208.28;6127785;23;20160;-82
2023/09/23 02:04:18;;;;;;;1.27;0.60;;;;;;;10.85;79.19;95212.50;6127534;23;20222;-80
2023/09/23 02:06:43;;;;;;;1.10;0.63;;;;;;;10.82;79.22;95215.41;6152976;23;20158;-80
2023/09/23 02:09:09;;;;;;;2.40;0.80;;;;;;;10.92;78.79;95214.31;6128894;23;20230;-81
2023/09/23 02:11:38;;;;;;;1.50;0.60;;;;;;;10.92;79.10;95209.09;6151598;23;20518;-80
2023/09/23 02:14:04;;;;;;;0.90;0.60;;;;;;;10.76;79.74;95203.84;6151284;23;20820;-80
2023/09/23 02:16:30;;;;;;;1.60;0.80;;;;;;;10.78;79.92;95212.31;6152816;23;20499;-80
2023/09/23 02:18:55;;;;;;;1.43;0.70;;;;;;;10.71;79.89;95209.53;6129226;23;20159;-81
2023/09/23 02:21:20;;;;;;;2.40;0.80;;;;;;;10.80;79.50;95204.38;6124423;23;20282;-79
2023/09/23 02:23:46;;;;;;;1.20;0.73;;;;;;;10.74;79.89;95211.00;6152936;23;20170;-79
2023/09/23 02:26:12;;;;;;;2.97;0.83;;;;;;;10.66;80.27;95218.75;6152651;23;20290;-82
2023/09/23 02:28:38;;;;;;;1.47;0.90;;;;;;;10.55;80.59;95224.22;6128229;23;20269;-82
2023/09/23 02:31:03;;;;;;;3.10;0.87;;;;;;;10.80;79.53;95219.94;6128522;23;20309;-81
2023/09/23 02:33:30;;;;;;;1.93;0.90;;;;;;;10.73;79.96;95219.75;6126886;23;20183;-80
2023/09/23 02:35:56;;;;;;;1.43;0.90;;;;;;;10.61;80.25;95221.03;6127926;23;20182;-81
2023/09/23 02:38:22;;;;;;;1.03;0.70;;;;;;;10.77;79.45;95216.69;6128220;23;20246;-81
2023/09/23 02:40:49;;;;;;;1.33;0.70;;;;;;;10.71;79.81;95211.31;6128251;23;20197;-81
2023/09/23 02:43:18;;;;;;;1.07;0.90;;;;;;;10.87;78.79;95221.78;6127565;23;20626;-80
2023/09/23 02:45:47;;;;;;;2.03;0.70;;;;;;;10.70;79.44;95220.09;6128489;23;20187;-81
2023/09/23 02:48:13;;;;;;;2.20;0.90;;;;;;;10.77;79.56;95227.06;6128392;23;20497;-81
2023/09/23 02:50:38;;;;;;;2.60;0.77;;;;;;;10.65;79.46;95223.13;6128003;23;20159;-80
2023/09/23 02:53:04;;;;;;;2.97;0.80;;;;;;;10.60;80.43;95233.19;6152793;23;20163;-79
2023/09/23 02:55:29;;;;;;;1.60;0.60;;;;;;;10.59;80.08;95234.13;6153956;23;20175;-80
2023/09/23 02:57:55;;;;;;;1.20;0.73;;;;;;;10.64;79.73;95244.06;6129522;23;20265;-80
2023/09/23 03:00:23;;;;;;;1.40;0.90;;;;;;;10.63;79.19;95251.03;6129726;23;20159;-81
2023/09/23 03:02:58;;;;;;;4.20;1.10;;;;;;;10.75;78.86;95244.59;6129988;23;20214;-80
2023/09/23 03:05:38;;;;;;;1.20;0.87;;;;;;;10.62;79.33;95254.63;6130652;23;20657;-79
2023/09/23 03:08:04;;;;;;;0.70;0.70;;;;;;;10.57;79.98;95256.84;6156070;23;20139;-78
2023/09/23 03:10:49;;;;;;;1.60;0.83;;;;;;;10.69;79.32;95263.41;6130934;23;20603;-79
2023/09/23 03:13:15;;;;;;;1.73;0.87;;;;;;;10.55;79.87;95256.19;6154721;23;20263;-79
2023/09/23 03:15:58;;;;;;;3.10;0.83;;;;;;;10.44;80.41;95264.25;6155390;23;20230;-80
2023/09/23 03:18:33;;;;;;;1.90;0.80;;;;;;;10.53;80.08;95276.31;6155957;23;20136;-80
2023/09/23 03:21:03;;;;;;;1.10;0.70;;;;;;;10.57;79.50;95276.81;6147246;23;20182;-82
2023/09/23 03:23:29;;;;;;;2.70;0.97;;;;;;;10.40;80.58;95281.09;6174448;23;20155;-80
2023/09/23 03:25:56;;;;;;;1.03;0.90;;;;;;;10.40;80.63;95281.91;6181389;23;20198;-79
2023/09/23 03:28:21;;;;;;;1.30;0.83;;;;;;;10.39;80.36;95279.47;6156650;23;20231;-80
2023/09/23 03:30:49;;;;;;;2.80;0.73;;;;;;;10.31;80.88;95277.63;6159493;23;20167;-82
2023/09/23 03:33:18;;;;;;;2.87;1.00;;;;;;;10.35;80.62;95278.97;6134079;23;20246;-82
2023/09/23 03:35:44;;;;;;;2.30;0.80;;;;;;;10.51;79.89;95275.63;6134895;23;20155;-82
2023/09/23 03:38:10;;;;;;;4.27;0.90;;;;;;;10.34;80.74;95276.53;6134916;23;20166;-82
2023/09/23 03:40:38;;;;;;;1.93;0.70;;;;;;;10.42;79.64;95280.00;6136232;23;20156;-81
2023/09/23 03:43:03;;;;;;;2.70;0.70;;;;;;;10.47;79.97;95282.91;6157600;23;20155;-81
2023/09/23 03:45:33;;;;;;;1.47;1.00;;;;;;;10.43;79.79;95284.22;6132930;23;20655;-82
2023/09/23 03:47:58;;;;;;;2.33;0.87;;;;;;;10.42;79.78;95290.38;6135453;23;20155;-82
2023/09/23 03:50:24;;;;;;;0.77;0.77;;;;;;;10.49;79.12;95293.97;6135003;23;20167;-82
2023/09/23 03:52:51;;;;;;;1.07;0.60;;;;;;;10.43;78.75;95296.38;6134053;23;20171;-82
2023/09/23 03:55:18;;;;;;;2.53;0.80;;;;;;;10.42;79.31;95298.16;6157557;23;20198;-82
2023/09/23 03:57:44;;;;;;;2.27;1.10;;;;;;;10.47;79.01;95303.69;6134683;23;20159;-82
2023/09/23 04:00:17;;;;;;;1.67;0.60;;;;;;;10.33;78.91;95309.41;6135593;23;20178;-82
2023/09/23 04:02:44;;;;;;;0.80;0.80;;;;;;;10.31;79.51;95298.38;6158894;23;20154;-83
2023/09/23 04:05:10;;;;;;;0.77;0.50;;;;;;;10.25;79.62;95304.19;6135437;23;20183;-80
2023/09/23 04:07:36;;;;;;;3.07;0.77;;;;;;;10.16;79.79;95305.88;6134107;23;20722;-83
2023/09/23 04:10:02;;;;;;;1.60;0.83;;;;;;;10.12;80.07;95303.72;6134114;23;20159;-80
2023/09/23 04:12:27;;;;;;;0.93;0.87;;;;;;;10.07;80.20;95301.59;6133672;23;20158;-82
2023/09/23 04:14:53;;;;;;;2.57;0.90;;;;;;;10.07;80.67;95298.16;6134629;23;20179;-82
2023/09/23 04:17:18;;;;;;;2.07;0.83;;;;;;;10.16;80.18;95297.28;6133417;23;20159;-81
2023/09/23 04:19:43;;;;;;;1.73;0.90;;;;;;;10.12;80.10;95303.72;6135260;23;20308;-82
2023/09/23 04:22:11;;;;;;;1.40;0.80;;;;;;;10.05;80.26;95305.28;6159070;23;20542;-83
2023/09/23 04:24:36;;;;;;;0.70;0.70;;;;;;;10.01;80.66;95307.38;6160463;23;20234;-81
2023/09/23 04:27:02;;;;;;;1.43;1.00;;;;;;;10.07;80.46;95311.97;6134365;23;20159;-81
2023/09/23 04:29:29;;;;;;;1.73;1.03;;;;;;;10.05;80.28;95307.88;6134271;23;20175;-83
2023/09/23 04:31:56;;;;;;;1.10;0.80;;;;;;;9.89;80.66;95313.75;6158524;23;20514;-80
2023/09/23 04:34:24;;;;;;;1.80;0.77;;;;;;;10.02;80.69;95315.97;6133872;23;20520;-80
2023/09/23 04:36:49;;;;;;;4.07;1.03;;;;;;;10.04;80.07;95321.81;6134359;23;20159;-82
2023/09/23 04:39:15;;;;;;;0.83;0.73;;;;;;;10.10;80.05;95326.44;6158691;23;20615;-81
2023/09/23 04:41:41;;;;;;;2.33;0.90;;;;;;;9.94;80.60;95322.72;6132948;23;20170;-80
2023/09/23 04:44:07;;;;;;;2.27;0.77;;;;;;;10.07;80.20;95326.72;6131957;23;20179;-80
2023/09/23 04:46:33;;;;;;;7.23;1.00;;;;;;;10.06;79.78;95319.88;6132685;23;20159;-82
2023/09/23 04:49:00;;;;;;;0.90;0.63;;;;;;;9.99;80.26;95330.06;6158875;23;20642;-81
2023/09/23 04:51:25;;;;;;;4.67;0.90;;;;;;;9.90;80.29;95329.19;6131947;23;20163;-82
2023/09/23 04:53:51;;;;;;;2.03;0.90;;;;;;;9.89;79.98;95334.50;6155651;23;20610;-80
2023/09/23 04:56:17;;;;;;;2.13;0.90;;;;;;;9.88;80.02;95336.28;6132303;23;20151;-80
2023/09/23 04:58:43;;;;;;;3.90;0.97;;;;;;;9.83;80.68;95345.47;6156733;23;20156;-82
2023/09/23 05:01:09;;;;;;;0.93;0.60;;;;;;;9.76;80.59;95350.44;6131032;23;20618;-81
2023/09/23 05:03:36;;;;;;;1.00;0.70;;;;;;;9.75;80.79;95351.41;6154409;23;20175;-82
2023/09/23 05:06:02;;;;;;;1.03;0.93;;;;;;;9.75;81.02;95355.78;6155744;23;20175;-80
2023/09/23 05:08:27;;;;;;;1.73;0.87;;;;;;;9.71;80.92;95357.81;6157733;23;20155;-82
2023/09/23 05:10:53;;;;;;;1.63;0.90;;;;;;;9.74;81.56;95354.97;6132451;23;20166;-83
2023/09/23 05:13:18;;;;;;;1.47;0.93;;;;;;;9.77;81.33;95359.84;6131532;23;20171;-83
2023/09/23 05:15:43;;;;;;;1.10;0.80;;;;;;;9.72;81.68;95356.91;6131018;23;20171;-82
2023/09/23 05:18:09;;;;;;;1.87;1.00;;;;;;;9.69;82.56;95361.53;6132003;23;20163;-81
2023/09/23 05:20:34;;;;;;;1.00;0.90;;;;;;;9.75;82.42;95359.19;6155546;23;20175;-83
2023/09/23 05:23:02;;;;;;;3.77;1.03;;;;;;;9.84;81.58;95362.66;6154647;23;20511;-81
2023/09/23 05:25:28;;;;;;;1.30;0.80;;;;;;;9.97;81.32;95359.69;6130250;23;20738;-81
2023/09/23 05:27:54;;;;;;;1.60;1.00;;;;;;;9.84;81.62;95373.84;6154938;23;20163;-81
2023/09/23 05:30:21;;;;;;;1.50;1.13;;;;;;;9.98;81.09;95369.09;6135894;23;20155;-81
2023/09/23 05:32:47;;;;;;;1.23;0.70;;;;;;;10.12;80.40;95378.97;6130126;23;20210;-81
2023/09/23 05:35:12;;;;;;;1.67;0.80;;;;;;;10.20;79.92;95384.25;6155827;23;20171;-81
2023/09/23 05:37:39;;;;;;;2.80;0.90;;;;;;;10.33;79.32;95379.50;6156426;23;20159;-80
2023/09/23 05:40:10;;;;;;;3.50;0.90;;;;;;;10.28;79.49;95386.94;6154734;23;20222;-81
2023/09/23 05:42:36;;;;;;;2.20;1.10;;;;;;;10.36;79.28;95386.19;6154905;23;20194;-80
2023/09/23 05:45:02;;;;;;;1.10;1.00;;;;;;;10.46;78.80;95389.50;6156940;23;20183;-81
2023/09/23 05:47:27;;;;;;;3.53;1.03;;;;;;;10.47;78.79;95396.34;6154736;23;20536;-81
2023/09/23 05:49:52;;;;;;;1.03;0.80;;;;;;;10.57;78.32;95404.84;6130003;23;20158;-83
2023/09/23 05:52:18;;;;;;;1.20;1.10;;;;;;;10.54;78.68;95412.13;6128952;23;20163;-80
2023/09/23 05:54:43;;;;;;;1.60;1.00;;;;;;;10.64;78.22;95412.84;6129134;23;20904;-81
2023/09/23 05:57:09;;;;;;;3.27;1.60;;;;;;;10.52;77.95;95414.88;6128551;23;20155;-81
2023/09/23 05:59:34;;;;;;;2.27;1.10;;;;;;;10.63;77.94;95414.63;6128334;23;20163;-81
2023/09/23 06:02:00;;;;;;;2.20;0.70;;;;;;;10.53;78.40;95423.50;6127478;23;20254;-79
2023/09/23 06:04:25;;;;;;;2.57;1.00;;;;;;;10.59;78.82;95430.66;6154937;23;20183;-79
2023/09/23 06:06:51;;;;;;;2.20;1.20;;;;;;;10.53;78.78;95431.28;6153376;23;20173;-80
2023/09/23 06:09:16;;;;;;;1.93;1.20;;;;;;;10.60;78.58;95442.66;6128936;23;20167;-79
2023/09/23 06:11:43;;;;;;;1.67;1.20;;;;;;;10.67;78.26;95443.72;6128863;23;20155;-80
2023/09/23 06:14:10;;;;;;;2.50;1.10;;;;;;;10.83;77.79;95448.22;6128669;23;20175;-80
2023/09/23 06:16:35;;;;;;;1.17;0.80;;;;;;;10.99;76.94;95459.53;6153461;23;20151;-80
2023/09/23 06:19:00;;;;;;;1.93;1.00;;;;;;;10.79;78.04;95458.09;6129319;23;20170;-81
2023/09/23 06:21:26;;;;;;;2.83;0.90;;;;;;;10.88;77.58;95464.19;6128801;23;20236;-79
2023/09/23 06:23:51;;;;;;;1.40;0.90;;;;;;;10.93;77.53;95460.13;6128467;23;20258;-81
2023/09/23 06:26:17;;;;;;;1.03;0.80;;;;;;;11.16;76.60;95467.44;6154096;23;20695;-82
2023/09/23 06:28:42;;;;;;;2.57;0.90;;;;;;;11.17;75.64;95467.28;6156681;23;20218;-80
2023/09/23 06:31:09;;;;;;;1.90;0.90;;;;;;;11.36;75.69;95474.06;6131475;23;20155;-81
2023/09/23 06:33:35;;;;;;;1.10;0.90;;;;;;;11.38;75.37;95474.72;6132962;23;20187;-83
2023/09/23 06:36:04;;;;;;;1.43;1.10;;;;;;;11.33;75.57;95480.38;6131916;23;20238;-80
2023/09/23 06:38:31;;;;;;;0.70;0.70;;;;;;;11.64;74.45;95496.31;6129560;23;20162;-82
2023/09/23 06:40:56;;;;;;;1.47;1.03;;;;;;;11.61;74.54;95486.22;6179923;23;20562;-80
2023/09/23 06:43:21;;;;;;;1.90;0.70;;;;;;;11.56;74.78;95504.06;6130497;23;20163;-83
2023/09/23 06:45:57;;;;;;;1.97;0.93;;;;;;;11.76;73.87;95501.25;6158794;23;20230;-81
2023/09/23 06:48:23;;;;;;;0.90;0.80;;;;;;;11.61;74.70;95495.81;6132487;23;20174;-81
2023/09/23 06:50:59;;;;;;;1.37;0.90;;;;;;;11.87;73.86;95507.03;6131021;23;20174;-80
2023/09/23 06:53:25;;;;;;;1.37;0.87;;;;;;;11.83;73.84;95517.88;6155827;23;20154;-81
2023/09/23 06:55:51;;;;;;;1.10;0.80;;;;;;;11.91;73.60;95517.91;6133402;23;20165;-81
2023/09/23 06:58:16;;;;;;;0.83;0.83;;;;;;;11.90;73.69;95516.28;6134144;23;20178;-82
2023/09/23 07:00:42;;;;;;;1.80;1.00;;;;;;;11.92;73.41;95519.56;6133956;23;20159;-82
2023/09/23 07:03:07;;;;;;;0.80;0.80;;;;;;;12.07;72.44;95515.38;6126653;23;20615;-78
2023/09/23 07:05:34;;;;;;;3.90;0.90;;;;;;;12.07;73.17;95514.56;6150621;23;20194;-78
2023/09/23 07:08:00;;;;;;;0.73;0.70;;;;;;;11.68;74.02;95520.25;6153194;23;20158;-79
2023/09/23 07:10:25;;;;;;;1.30;0.80;;;;;;;11.77;73.96;95514.09;6154059;23;20159;-79
2023/09/23 07:12:50;;;;;;;1.87;0.80;;;;;;;11.61;75.02;95511.41;6128726;23;20158;-81
2023/09/23 07:15:16;;;;;;;1.23;0.80;;;;;;;11.75;74.93;95523.84;6154494;23;20164;-79
2023/09/23 07:17:41;;;;;;;1.73;0.90;;;;;;;12.01;73.64;95526.41;6129713;23;20666;-79
2023/09/23 07:20:07;;;;;;;2.87;0.80;;;;;;;12.26;73.85;95536.94;6154606;23;20175;-78
2023/09/23 07:22:32;;;;;;;3.47;1.10;;;;;;;12.22;72.96;95540.81;6153591;23;20167;-80
2023/09/23 07:24:57;;;;;;;2.20;1.00;;;;;;;12.56;72.12;95549.41;6154014;23;20239;-80
2023/09/23 07:27:24;;;;;;;2.23;1.10;;;;;;;12.58;71.07;95551.84;6129165;23;20167;-79
2023/09/23 07:29:49;;;;;;;0.83;0.80;;;;;;;12.81;70.40;95552.88;6154111;23;20163;-78
2023/09/23 07:32:15;;;;;;;2.57;0.83;;;;;;;12.71;71.21;95552.16;6128610;23;20155;-80
2023/09/23 07:34:40;;;;;;;1.17;0.80;;;;;;;13.03;70.23;95554.81;6129570;23;20281;-80
2023/09/23 07:37:06;;;;;;;0.87;0.80;;;;;;;12.83;70.91;95556.13;6160431;23;20167;-82
2023/09/23 07:39:32;;;;;;;1.83;0.93;;;;;;;12.86;71.05;95554.97;6132941;23;20591;-82
2023/09/23 07:41:57;;;;;;;0.70;0.70;;;;;;;12.72;70.80;95554.63;6157208;23;20151;-82
2023/09/23 07:44:23;;;;;;;2.20;1.00;;;;;;;12.81;70.20;95562.44;6155938;23;20667;-83
2023/09/23 07:46:48;;;;;;;2.67;0.90;;;;;;;12.70;70.96;95559.16;6159521;23;20178;-81
2023/09/23 07:49:13;;;;;;;2.73;0.87;;;;;;;12.97;69.98;95557.25;6133671;23;20564;-80
2023/09/23 07:51:39;;;;;;;0.97;0.67;;;;;;;13.01;69.83;95569.81;6133441;23;20159;-82
2023/09/23 07:54:05;;;;;;;0.90;0.80;;;;;;;12.87;70.05;95567.84;6135063;23;20179;-82
2023/09/23 07:56:30;;;;;;;1.70;0.90;;;;;;;12.86;69.67;95568.00;6135119;23;20159;-83
2023/09/23 07:58:56;;;;;;;1.43;0.80;;;;;;;13.01;69.92;95571.59;6159260;23;20155;-81
2023/09/23 08:01:21;;;;;;;2.40;0.80;;;;;;;13.03;69.72;95583.50;6133010;23;20199;-80
2023/09/23 08:03:46;;;;;;;2.37;0.80;;;;;;;12.94;68.57;95583.66;6158612;23;20179;-82
2023/09/23 08:06:12;;;;;;;1.17;0.83;;;;;;;13.20;68.11;95578.31;6136442;23;20190;-82
2023/09/23 08:08:37;;;;;;;2.50;0.80;;;;;;;12.93;68.16;95588.06;6160846;23;20156;-81
2023/09/23 08:11:03;;;;;;;1.30;0.70;;;;;;;13.17;68.06;95599.50;6155987;23;20190;-80
2023/09/23 08:13:28;;;;;;;1.80;0.90;;;;;;;13.40;67.80;95597.88;6152476;23;20230;-77
2023/09/23 08:15:57;;;;;;;3.47;0.87;;;;;;;13.02;68.92;95600.13;6153162;23;20152;-77
2023/09/23 08:18:23;;;;;;;0.60;0.60;;;;;;;13.36;67.88;95606.22;6152934;23;20173;-78
2023/09/23 08:20:55;;;;;;;2.70;0.70;;;;;;;13.54;67.12;95612.88;6127898;23;20190;-78
2023/09/23 08:23:20;;;;;;;2.30;0.80;;;;;;;13.39;66.96;95613.69;6176847;23;20177;-78
2023/09/23 08:25:45;;;;;;;2.33;0.90;;;;;;;13.53;66.35;95618.28;6153149;23;20670;-77
2023/09/23 08:28:13;;;;;;;0.93;0.70;;;;;;;13.65;66.00;95616.94;6127973;23;20171;-77
2023/09/23 08:30:40;;;;;;;0.87;0.67;;;;;;;13.64;65.47;95623.16;6151972;23;20163;-78
2023/09/23 08:33:05;;;;;;;1.40;0.93;;;;;;;13.87;66.22;95629.31;6151881;23;20159;-77
2023/09/23 08:35:31;;;;;;;1.13;0.63;;;;;;;13.63;65.70;95631.97;6152723;23;20178;-78
2023/09/23 08:37:56;;;;;;;2.60;0.93;;;;;;;13.69;65.18;95636.50;6128859;23;20237;-77
2023/09/23 08:40:21;;;;;;;3.20;0.90;;;;;;;13.66;65.62;95634.22;6128923;23;20162;-78
2023/09/23 08:42:52;;;;;;;2.20;0.97;;;;;;;13.85;64.31;95636.47;6152578;23;20156;-78
2023/09/23 08:45:21;;;;;;;2.10;0.80;;;;;;;13.90;63.93;95641.22;6153328;23;20657;-78
2023/09/23 08:47:47;;;;;;;3.60;0.73;;;;;;;13.91;63.80;95642.03;6154124;23;20615;-78
2023/09/23 08:50:13;;;;;;;1.83;0.90;;;;;;;14.04;64.10;95637.91;6153818;23;20159;-78
2023/09/23 08:52:38;;;;;;;1.10;0.70;;;;;;;14.08;62.43;95641.84;6153053;23;20164;-78
2023/09/23 08:55:04;;;;;;;2.67;1.03;;;;;;;14.41;62.54;95647.78;6128777;23;20183;-77
2023/09/23 08:57:30;;;;;;;1.87;0.70;;;;;;;14.29;63.06;95648.31;6128074;23;20171;-78
2023/09/23 08:59:57;;;;;;;2.70;0.90;;;;;;;14.55;62.35;95655.94;6153074;23;20595;-78
2023/09/23 09:02:25;;;;;;;2.20;0.83;;;;;;;14.38;61.30;95645.50;6155154;23;20166;-80
2023/09/23 09:04:54;;;;;;;3.97;1.07;;;;;;;14.57;60.94;95635.66;6180173;23;20186;-82
2023/09/23 09:07:23;;;;;;;2.10;0.80;;;;;;;15.01;60.85;95635.94;6132519;23;20250;-80
2023/09/23 09:09:48;;;;;;;1.07;0.73;;;;;;;14.89;60.39;95634.69;6155637;23;20166;-81
2023/09/23 09:12:16;;;;;;;1.77;0.77;;;;;;;15.06;59.15;95636.22;6130454;23;20186;-83
2023/09/23 09:14:41;;;;;;;1.83;0.77;;;;;;;15.18;59.62;95634.03;6149544;23;20827;-80
2023/09/23 09:17:09;;;;;;;2.77;1.23;;;;;;;15.30;59.90;95637.88;6129211;23;20159;-82
2023/09/23 09:19:39;;;;;;;3.33;0.83;;;;;;;15.34;58.69;95647.00;6128552;23;20181;-82
2023/09/23 09:22:04;;;;;;;3.67;0.90;;;;;;;15.28;58.11;95640.69;6155302;23;20159;-80
2023/09/23 09:24:30;;;;;;;1.57;0.90;;;;;;;15.35;57.19;95646.00;6154862;23;20175;-81
2023/09/23 09:26:55;;;;;;;3.15;0.93;;;;;;;15.27;57.84;95651.28;6150862;23;20158;-81
2023/09/23 09:29:21;;;;;;;3.67;1.10;;;;;;;15.49;56.30;95653.13;6150689;23;20323;-82
2023/09/23 09:31:49;;;;;;;1.23;0.90;;;;;;;15.53;54.87;95658.78;6151637;23;20509;-79
2023/09/23 09:34:16;;;;;;;5.03;1.00;;;;;;;15.72;54.26;95663.56;6127161;23;20191;-80
2023/09/23 09:36:41;;;;;;;2.35;1.15;;;;;;;15.50;54.30;95656.53;6178855;23;20155;-80
2023/09/23 09:39:08;;;;;;;3.83;1.20;;;;;;;15.50;53.70;95664.41;6151575;23;20229;-77
2023/09/23 09:41:40;;;;;;;3.97;1.10;;;;;;;15.41;52.70;95660.22;6150482;23;20178;-76
2023/09/23 09:44:07;;;;;;;4.25;1.10;;;;;;;15.41;53.30;95655.78;6150415;23;20185;-78
2023/09/23 09:46:34;;;;;;;5.93;1.05;;;;;;;15.38;53.20;95658.75;6122701;23;20646;-78
2023/09/23 09:49:00;;;;;;;1.55;1.20;;;;;;;15.51;53.18;95658.97;6126390;23;20194;-77
2023/09/23 09:51:27;;;;;;;2.22;0.93;;;;;;;15.26;52.40;95667.97;6125761;23;20167;-78
2023/09/23 09:53:53;;;;;;;1.80;1.00;;;;;;;15.38;53.59;95663.19;6175327;23;20175;-78
2023/09/23 09:56:19;;;;;;;2.80;1.10;;;;;;;15.79;52.93;95664.50;6126671;23;20561;-82
2023/09/23 09:58:47;;;;;;;1.08;0.90;;;;;;;15.88;53.17;95674.91;6125646;23;20638;-79
2023/09/23 10:01:13;;;;;;;3.28;1.23;;;;;;;15.91;53.00;95669.34;6124445;23;20163;-79
2023/09/23 10:03:51;;;;;;;1.98;0.77;;;;;;;16.29;51.17;95665.69;6127612;23;20541;-78
2023/09/23 10:06:22;;;;;;;2.17;1.00;;;;;;;16.34;52.25;95668.59;6127951;23;20197;-78
2023/09/23 10:08:51;;;;;;;1.67;0.93;;;;;;;16.18;52.71;95667.94;6152332;23;20153;-76
2023/09/23 10:11:16;;;;;;;2.00;1.33;;;;;;;16.18;52.70;95674.00;6150077;23;20272;-76
2023/09/23 10:13:46;;;;;;;2.38;1.10;;;;;;;15.88;50.84;95673.09;6150591;23;20290;-76
2023/09/23 10:16:18;;;;;;;1.42;0.93;;;;;;;16.18;52.51;95666.13;6150222;23;20226;-77
2023/09/23 10:18:53;;;;;;;6.43;1.38;;;;;;;15.76;53.10;95664.88;6150487;23;20490;-76
2023/09/23 10:21:23;;;;;;;2.17;1.30;;;;;;;15.64;53.31;95668.91;6149739;23;20170;-76
2023/09/23 10:23:50;;;;;;;3.28;0.90;;;;;;;15.54;52.48;95666.47;6149570;23;20657;-76
2023/09/23 10:26:19;;;;;;;4.35;0.90;;;;;;;15.72;52.61;95665.38;6125591;23;20210;-78
2023/09/23 10:29:03;;;;;;;3.88;0.90;;;;;;;16.03;51.46;95663.47;6150471;23;20618;-77
2023/09/23 10:31:30;;;;;;;2.33;0.90;;;;;;;15.94;50.39;95667.16;6148166;23;20162;-76
2023/09/23 10:33:55;;;;;;;2.03;1.00;;;;;;;15.86;51.64;95664.63;6148449;23;20665;-76
2023/09/23 10:36:22;;;;;;;2.42;1.10;;;;;;;15.84;51.56;95669.22;6123509;23;20258;-76
2023/09/23 10:38:48;;;;;;;2.22;0.98;;;;;;;15.94;52.50;95669.78;6148146;23;20541;-75
2023/09/23 10:41:13;;;;;;;3.70;0.95;;;;;;;16.05;51.54;95666.72;6149710;23;20175;-77
2023/09/23 10:43:39;;;;;;;2.42;1.42;;;;;;;16.31;51.54;95668.94;6128269;23;20515;-78
2023/09/23 10:46:05;;;;;;;3.47;0.98;;;;;;;16.69;51.16;95666.22;6127376;23;20199;-78
2023/09/23 10:48:31;;;;;;;1.55;0.85;;;;;;;16.76;50.11;95672.38;6153177;23;20159;-78
2023/09/23 10:50:57;;;;;;;1.15;0.80;;;;;;;16.80;49.28;95668.41;6128429;23;20202;-78
2023/09/23 10:53:22;;;;;;;2.30;0.68;;;;;;;16.15;50.11;95671.72;6150510;23;20599;-77
2023/09/23 10:55:49;;;;;;;1.45;0.80;;;;;;;16.33;50.59;95668.75;6129320;23;20182;-78
2023/09/23 10:58:14;;;;;;;1.63;0.88;;;;;;;16.58;49.60;95677.16;6153306;23;20250;-77
2023/09/23 11:00:41;;;;;;;2.90;1.00;;;;;;;16.88;50.37;95680.63;6153416;23;20186;-78
2023/09/23 11:03:08;;;;;;;1.20;0.70;;;;;;;16.69;48.48;95671.47;6126243;23;20545;-78
2023/09/23 11:05:37;;;;;;;3.25;0.75;;;;;;;16.63;49.05;95670.38;6152619;23;20187;-78
2023/09/23 11:08:03;;;;;;;2.05;0.95;;;;;;;16.65;50.19;95683.31;6128788;23;20190;-77
2023/09/23 11:10:28;;;;;;;1.45;0.80;;;;;;;16.63;49.77;95682.69;6152424;23;20167;-78
2023/09/23 11:12:55;;;;;;;2.08;0.90;;;;;;;16.30;50.73;95682.22;6150937;23;20162;-78
2023/09/23 11:15:21;;;;;;;1.75;0.90;;;;;;;16.45;51.30;95682.22;6152828;23;20179;-78
2023/09/23 11:17:46;;;;;;;1.50;0.80;;;;;;;16.35;51.15;95678.06;6153459;23;20210;-77
2023/09/23 11:20:12;;;;;;;2.40;0.90;;;;;;;16.12;51.53;95688.59;6154454;23;20171;-78
2023/09/23 11:22:37;;;;;;;2.72;1.10;;;;;;;16.36;51.04;95677.06;6153638;23;20147;-77
2023/09/23 11:25:08;;;;;;;2.28;0.90;;;;;;;16.48;51.00;95687.09;6128798;23;20300;-78
2023/09/23 11:27:33;;;;;;;2.58;0.98;;;;;;;16.49;51.23;95686.91;6153572;23;20132;-77
2023/09/23 11:29:58;;;;;;;3.33;1.00;;;;;;;16.69;49.75;95693.28;6130608;23;20165;-78
2023/09/23 11:32:25;;;;;;;3.20;1.00;;;;;;;16.60;49.29;95678.59;6154078;23;20187;-79